Time;durP1;ratioP1;P1;durP2;ratioP2;P2;SDS_P1;SDS_P2;PMS_P1;PMS_P2;Temp;Humidity;BMP_temperature;BMP_pressure;BME280_temperature;BME280_humidity;BME280_pressure;Samples;Min_cycle;Max_cycle;Signal;HPM_P1;HPM_P2
2022/11/22 00:02:13;;;;;;;;;1.50;1.50;;;;;-147.17;100.00;-15917.19;5032904;28;51076;-57
2022/11/22 00:04:39;;;;;;;;;1.00;1.00;;;;;-147.17;100.00;-15917.19;5032469;28;51073;-58
2022/11/22 00:07:04;;;;;;;;;2.00;2.00;;;;;-147.17;100.00;-15917.19;5031382;28;51999;-58
2022/11/22 00:09:30;;;;;;;;;2.50;2.00;;;;;-147.17;100.00;-15917.19;5031610;28;51056;-58
2022/11/22 00:11:55;;;;;;;;;2.00;2.00;;;;;-147.17;100.00;-15917.19;5032564;28;51036;-59
2022/11/22 00:14:21;;;;;;;;;1.00;1.00;;;;;-147.17;100.00;-15917.19;5025481;28;51700;-59
2022/11/22 00:16:46;;;;;;;;;2.00;1.25;;;;;-147.17;100.00;-15917.19;5030891;28;52602;-58
2022/11/22 00:19:11;;;;;;;;;2.00;1.00;;;;;-147.17;100.00;-15917.19;5035767;28;51219;-59
2022/11/22 00:21:37;;;;;;;;;2.00;0.00;;;;;-147.17;100.00;-15917.19;5029776;28;51051;-59
2022/11/22 00:24:02;;;;;;;;;1.00;1.00;;;;;-147.17;100.00;-15917.19;5030536;28;51107;-58
2022/11/22 00:26:28;;;;;;;;;2.50;2.25;;;;;-147.17;100.00;-15917.19;5032307;28;52040;-59
2022/11/22 00:28:53;;;;;;;;;1.00;1.00;;;;;-147.17;100.00;-15917.19;5032299;28;51192;-59
2022/11/22 00:31:18;;;;;;;;;3.00;2.75;;;;;-147.17;100.00;-15917.19;5030838;28;51122;-59
2022/11/22 00:33:44;;;;;;;;;1.00;1.00;;;;;-147.17;100.00;-15917.19;5032497;28;50930;-58
2022/11/22 00:36:09;;;;;;;;;3.50;2.25;;;;;-147.17;100.00;-15917.19;5033046;28;51009;-58
2022/11/22 00:38:34;;;;;;;;;2.00;2.00;;;;;-147.17;100.00;-15917.19;5033446;28;51104;-58
2022/11/22 00:41:00;;;;;;;;;2.50;1.25;;;;;-147.17;100.00;-15917.19;5033590;28;51298;-59
2022/11/22 00:43:25;;;;;;;;;1.75;1.75;;;;;-147.17;100.00;-15917.19;5032309;28;51208;-59
2022/11/22 00:45:50;;;;;;;;;3.00;2.00;;;;;-147.17;100.00;-15917.19;5032943;28;51922;-59
2022/11/22 00:48:16;;;;;;;;;1.00;1.00;;;;;-147.17;100.00;-15917.19;5031236;28;51174;-60
2022/11/22 00:50:41;;;;;;;;;1.00;1.00;;;;;-147.17;100.00;-15917.19;5032582;28;51142;-58
2022/11/22 00:53:06;;;;;;;;;1.00;1.00;;;;;-147.17;100.00;-15917.19;5031870;28;51365;-58
2022/11/22 00:55:32;;;;;;;;;3.00;0.75;;;;;-147.17;100.00;-15917.19;5030636;28;51694;-58
2022/11/22 00:57:57;;;;;;;;;2.00;0.00;;;;;-147.17;100.00;-15917.19;5033123;28;51005;-58
2022/11/22 01:00:22;;;;;;;;;2.00;1.25;;;;;-147.17;100.00;-15917.19;5032919;28;51290;-59
2022/11/22 01:02:48;;;;;;;;;1.00;1.00;;;;;-147.17;100.00;-15917.19;5033393;28;51350;-60
2022/11/22 01:05:13;;;;;;;;;1.25;0.25;;;;;-147.17;100.00;-15917.19;5024250;28;55797;-59
2022/11/22 01:07:38;;;;;;;;;3.00;1.75;;;;;-147.17;100.00;-15917.19;5014576;28;51018;-59
2022/11/22 01:10:04;;;;;;;;;2.25;2.00;;;;;-147.17;100.00;-15917.19;5032773;28;51024;-59
2022/11/22 01:12:29;;;;;;;;;2.75;1.00;;;;;-147.17;100.00;-15917.19;5031996;28;51250;-58
2022/11/22 01:14:55;;;;;;;;;2.25;2.00;;;;;-147.17;100.00;-15917.19;5031955;28;52279;-58
2022/11/22 01:17:20;;;;;;;;;2.00;2.00;;;;;-147.17;100.00;-15917.19;5032524;28;51040;-59
2022/11/22 01:19:46;;;;;;;;;2.75;2.00;;;;;-147.17;100.00;-15917.19;5032377;28;50955;-58
2022/11/22 01:22:11;;;;;;;;;0.50;0.50;;;;;-147.17;100.00;-15917.19;5032707;28;51025;-58
2022/11/22 01:24:36;;;;;;;;;1.25;1.00;;;;;-147.17;100.00;-15917.19;5029762;28;51245;-58
2022/11/22 01:27:02;;;;;;;;;3.00;2.00;;;;;-147.17;100.00;-15917.19;5021830;28;51312;-59
2022/11/22 01:29:27;;;;;;;;;1.00;1.00;;;;;-147.17;100.00;-15917.19;5025276;28;51073;-58
2022/11/22 01:31:52;;;;;;;;;1.00;1.00;;;;;-147.17;100.00;-15917.19;5028065;28;51097;-59
2022/11/22 01:34:18;;;;;;;;;1.00;1.00;;;;;-147.17;100.00;-15917.19;5030909;28;54269;-59
2022/11/22 01:36:43;;;;;;;;;5.75;2.00;;;;;-147.17;100.00;-15917.19;5032068;28;50958;-59
2022/11/22 01:39:08;;;;;;;;;5.00;2.00;;;;;-147.17;100.00;-15917.19;5027813;28;51138;-59
2022/11/22 01:41:34;;;;;;;;;2.00;1.00;;;;;-147.17;100.00;-15917.19;5031115;28;51355;-59
2022/11/22 01:44:29;;;;;;;;;3.00;1.00;;;;;-147.17;100.00;-15917.19;5030464;28;51906;-58
2022/11/22 01:47:03;;;;;;;;;1.75;1.00;;;;;-147.17;100.00;-15917.19;5029176;28;51053;-59
2022/11/22 01:49:30;;;;;;;;;0.25;0.25;;;;;-147.17;100.00;-15917.19;5030548;28;51083;-58
2022/11/22 01:52:04;;;;;;;;;1.00;0.00;;;;;-147.17;100.00;-15917.19;5031223;28;50875;-58
2022/11/22 01:54:34;;;;;;;;;1.50;1.00;;;;;-147.17;100.00;-15917.19;5031088;28;51943;-59
2022/11/22 01:57:07;;;;;;;;;3.00;2.50;;;;;-147.17;100.00;-15917.19;5031619;28;51144;-58
2022/11/22 01:59:36;;;;;;;;;3.00;1.50;;;;;-147.17;100.00;-15917.19;5031455;28;51143;-58
2022/11/22 02:02:03;;;;;;;;;1.00;1.00;;;;;-147.17;100.00;-15917.19;5030978;28;51249;-59
2022/11/22 02:04:31;;;;;;;;;1.00;1.00;;;;;-147.17;100.00;-15917.19;5030638;28;51077;-59
2022/11/22 02:07:06;;;;;;;;;2.00;1.00;;;;;-147.17;100.00;-15917.19;5024457;28;51171;-58
2022/11/22 02:09:32;;;;;;;;;1.50;1.50;;;;;-147.17;100.00;-15917.19;5030759;28;51118;-58
2022/11/22 02:12:01;;;;;;;;;2.50;1.50;;;;;-147.17;100.00;-15917.19;5031019;28;51278;-58
2022/11/22 02:14:27;;;;;;;;;2.00;1.00;;;;;-147.17;100.00;-15917.19;5026384;28;51060;-58
2022/11/22 02:16:53;;;;;;;;;1.00;1.00;;;;;-147.17;100.00;-15917.19;5024383;28;51051;-58
2022/11/22 02:19:40;;;;;;;;;1.00;1.00;;;;;-147.17;100.00;-15917.19;5031446;28;51064;-58
2022/11/22 02:22:21;;;;;;;;;1.25;1.00;;;;;-147.17;100.00;-15917.19;5021106;28;51232;-61
2022/11/22 02:25:21;;;;;;;;;0.50;0.00;;;;;-147.17;100.00;-15917.19;5024350;28;53575;-58
2022/11/22 02:27:48;;;;;;;;;1.00;0.00;;;;;-147.17;100.00;-15917.19;5026188;28;51082;-59
2022/11/22 02:30:14;;;;;;;;;0.00;0.00;;;;;-147.17;100.00;-15917.19;5023609;28;51232;-57
2022/11/22 02:32:39;;;;;;;;;1.00;1.00;;;;;-147.17;100.00;-15917.19;5034187;28;51415;-58
2022/11/22 02:35:20;;;;;;;;;1.00;1.00;;;;;-147.17;100.00;-15917.19;5033502;28;51108;-58
2022/11/22 02:37:48;;;;;;;;;0.75;0.00;;;;;-147.17;100.00;-15917.19;5033235;28;51047;-60
2022/11/22 02:40:15;;;;;;;;;1.50;1.00;;;;;-147.17;100.00;-15917.19;5030584;28;50981;-57
2022/11/22 02:42:49;;;;;;;;;0.00;0.00;;;;;-147.17;100.00;-15917.19;5033503;28;51120;-59
2022/11/22 02:45:15;;;;;;;;;1.75;1.00;;;;;-147.17;100.00;-15917.19;5033011;28;51263;-57
2022/11/22 02:47:40;;;;;;;;;0.25;0.00;;;;;-147.17;100.00;-15917.19;5033479;28;51151;-58
2022/11/22 02:50:06;;;;;;;;;1.00;0.00;;;;;-147.17;100.00;-15917.19;5033274;28;50980;-59
2022/11/22 02:52:31;;;;;;;;;0.00;0.00;;;;;-147.17;100.00;-15917.19;5033631;28;51131;-57
2022/11/22 02:54:57;;;;;;;;;0.50;0.25;;;;;-147.17;100.00;-15917.19;5032012;28;52919;-58
2022/11/22 02:57:22;;;;;;;;;0.50;0.00;;;;;-147.17;100.00;-15917.19;5029815;28;51277;-58
2022/11/22 02:59:48;;;;;;;;;0.00;0.00;;;;;-147.17;100.00;-15917.19;5034515;28;51108;-58
2022/11/22 03:02:13;;;;;;;;;1.00;0.00;;;;;-147.17;100.00;-15917.19;5033231;28;51300;-58
2022/11/22 03:04:38;;;;;;;;;0.00;0.00;;;;;-147.17;100.00;-15917.19;5028530;28;55028;-58
2022/11/22 03:07:04;;;;;;;;;1.00;1.00;;;;;-147.17;100.00;-15917.19;5033087;28;51123;-59
2022/11/22 03:09:30;;;;;;;;;0.00;0.00;;;;;-147.17;100.00;-15917.19;5033437;28;51053;-58
2022/11/22 03:11:56;;;;;;;;;0.00;0.00;;;;;-147.17;100.00;-15917.19;5033797;28;51125;-58
2022/11/22 03:14:22;;;;;;;;;2.25;0.75;;;;;-147.17;100.00;-15917.19;5030715;28;51922;-59
2022/11/22 03:16:47;;;;;;;;;1.50;1.00;;;;;-147.17;100.00;-15917.19;5033147;28;51407;-59
2022/11/22 03:19:13;;;;;;;;;1.00;1.00;;;;;-147.17;100.00;-15917.19;5034038;28;51053;-59
2022/11/22 03:21:40;;;;;;;;;1.00;0.00;;;;;-147.17;100.00;-15917.19;5033000;28;51208;-59
2022/11/22 03:24:06;;;;;;;;;0.67;0.67;;;;;-147.17;100.00;-15917.19;5032945;28;51867;-59
2022/11/22 03:26:31;;;;;;;;;0.25;0.25;;;;;-147.17;100.00;-15917.19;5033216;28;51044;-59
2022/11/22 03:28:57;;;;;;;;;1.25;1.00;;;;;-147.17;100.00;-15917.19;5029540;28;51110;-59
2022/11/22 03:31:22;;;;;;;;;1.00;1.00;;;;;-147.17;100.00;-15917.19;5030882;28;50953;-60
2022/11/22 03:33:47;;;;;;;;;0.00;0.00;;;;;-147.17;100.00;-15917.19;5015055;28;58741;-60
2022/11/22 03:36:13;;;;;;;;;1.75;1.00;;;;;-147.17;100.00;-15917.19;5032970;28;51154;-60
2022/11/22 03:38:38;;;;;;;;;2.25;1.00;;;;;-147.17;100.00;-15917.19;5033515;28;51143;-60
2022/11/22 03:41:03;;;;;;;;;0.00;0.00;;;;;-147.17;100.00;-15917.19;5033100;28;51283;-60
2022/11/22 03:43:29;;;;;;;;;1.00;1.00;;;;;-147.17;100.00;-15917.19;5031056;28;51320;-59
2022/11/22 03:45:54;;;;;;;;;0.00;0.00;;;;;-147.17;100.00;-15917.19;5030625;28;51054;-59
2022/11/22 03:48:19;;;;;;;;;0.50;0.50;;;;;-147.17;100.00;-15917.19;5033178;28;50929;-60
2022/11/22 03:50:45;;;;;;;;;1.00;1.00;;;;;-147.17;100.00;-15917.19;5021470;28;51287;-60
2022/11/22 03:53:11;;;;;;;;;1.75;1.00;;;;;-147.17;100.00;-15917.19;5029233;28;51787;-59
2022/11/22 03:55:36;;;;;;;;;0.00;0.00;;;;;-147.17;100.00;-15917.19;5034067;28;50967;-60
2022/11/22 03:58:02;;;;;;;;;1.50;0.00;;;;;-147.17;100.00;-15917.19;5034038;28;51449;-59
2022/11/22 04:00:28;;;;;;;;;1.00;1.00;;;;;-147.17;100.00;-15917.19;5024297;28;51383;-59
2022/11/22 04:02:53;;;;;;;;;0.00;0.00;;;;;-147.17;100.00;-15917.19;5029803;28;51741;-58
2022/11/22 04:05:19;;;;;;;;;0.25;0.00;;;;;-147.17;100.00;-15917.19;5030451;28;51228;-58
2022/11/22 04:07:44;;;;;;;;;0.00;0.00;;;;;-147.17;100.00;-15917.19;5030680;28;51193;-59
2022/11/22 04:10:09;;;;;;;;;2.00;2.00;;;;;-147.17;100.00;-15917.19;5031955;28;51728;-59
2022/11/22 04:12:35;;;;;;;;;1.75;1.00;;;;;-147.17;100.00;-15917.19;5033612;28;51736;-59
2022/11/22 04:15:07;;;;;;;;;1.00;1.00;;;;;-147.17;100.00;-15917.19;5032827;28;51151;-59
2022/11/22 04:17:40;;;;;;;;;1.00;1.00;;;;;-147.17;100.00;-15917.19;5032903;28;51120;-59
2022/11/22 04:22:56;;;;;;;;;1.75;0.00;;;;;-147.17;100.00;-15917.19;5019794;28;51590;-59
2022/11/22 04:25:22;;;;;;;;;1.00;1.00;;;;;-147.17;100.00;-15917.19;5032569;28;51092;-59
2022/11/22 04:27:48;;;;;;;;;1.00;0.75;;;;;-147.17;100.00;-15917.19;5032494;28;51236;-59
2022/11/22 04:30:13;;;;;;;;;0.50;0.50;;;;;-147.17;100.00;-15917.19;5032183;28;52991;-60
2022/11/22 04:32:45;;;;;;;;;0.00;0.00;;;;;-147.17;100.00;-15917.19;5032960;28;52946;-59
2022/11/22 04:35:15;;;;;;;;;2.50;1.00;;;;;-147.17;100.00;-15917.19;5032005;28;51131;-60
2022/11/22 04:37:41;;;;;;;;;1.00;0.00;;;;;-147.17;100.00;-15917.19;5033363;28;51079;-60
2022/11/22 04:40:07;;;;;;;;;1.25;0.75;;;;;-147.17;100.00;-15917.19;5031426;28;51061;-59
2022/11/22 04:45:16;;;;;;;;;0.50;0.00;;;;;-147.17;100.00;-15917.19;5029289;28;51350;-59
2022/11/22 04:48:00;;;;;;;;;1.00;1.00;;;;;-147.17;100.00;-15917.19;5013400;28;51024;-59
2022/11/22 04:53:16;;;;;;;;;0.00;0.00;;;;;-147.17;100.00;-15917.19;5031134;28;51458;-59
2022/11/22 04:55:44;;;;;;;;;1.75;1.00;;;;;-147.17;100.00;-15917.19;5031657;28;51028;-59
2022/11/22 04:58:09;;;;;;;;;2.00;1.25;;;;;-147.17;100.00;-15917.19;5032033;28;51027;-60
2022/11/22 05:00:35;;;;;;;;;0.00;0.00;;;;;-147.17;100.00;-15917.19;5023849;28;51077;-60
2022/11/22 05:03:01;;;;;;;;;1.00;1.00;;;;;-147.17;100.00;-15917.19;5031044;28;51771;-60
2022/11/22 05:05:26;;;;;;;;;1.50;1.00;;;;;-147.17;100.00;-15917.19;5031655;28;51181;-60
2022/11/22 05:07:52;;;;;;;;;2.00;1.00;;;;;-147.17;100.00;-15917.19;5031579;28;51323;-58
2022/11/22 05:10:17;;;;;;;;;0.50;0.50;;;;;-147.17;100.00;-15917.19;5032199;28;51167;-60
2022/11/22 05:12:43;;;;;;;;;0.00;0.00;;;;;-147.17;100.00;-15917.19;5031553;28;51870;-59
2022/11/22 05:15:10;;;;;;;;;0.75;0.75;;;;;-147.17;100.00;-15917.19;5030873;28;51277;-59
2022/11/22 05:17:37;;;;;;;;;0.25;0.25;;;;;-147.17;100.00;-15917.19;5024167;28;51251;-59
2022/11/22 05:20:03;;;;;;;;;0.00;0.00;;;;;-147.17;100.00;-15917.19;5032642;28;51237;-59
2022/11/22 05:25:12;;;;;;;;;0.50;0.00;;;;;-147.17;100.00;-15917.19;5031996;28;51159;-59
2022/11/22 05:27:38;;;;;;;;;0.50;0.50;;;;;-147.17;100.00;-15917.19;5031611;28;51182;-60
2022/11/22 05:30:04;;;;;;;;;2.00;0.00;;;;;-147.17;100.00;-15917.19;5032919;28;50871;-60
2022/11/22 05:32:30;;;;;;;;;0.00;0.00;;;;;-147.17;100.00;-15917.19;5032306;28;52772;-60
2022/11/22 05:34:56;;;;;;;;;0.00;0.00;;;;;-147.17;100.00;-15917.19;5029133;28;51162;-60
2022/11/22 05:37:21;;;;;;;;;0.00;0.00;;;;;-147.17;100.00;-15917.19;5030548;28;52377;-60
2022/11/22 05:39:47;;;;;;;;;0.00;0.00;;;;;-147.17;100.00;-15917.19;5032868;28;50978;-59
2022/11/22 05:42:12;;;;;;;;;2.00;0.00;;;;;-147.17;100.00;-15917.19;5029788;28;52913;-59
2022/11/22 05:44:38;;;;;;;;;0.00;0.00;;;;;-147.17;100.00;-15917.19;5030529;28;51468;-59
2022/11/22 05:47:03;;;;;;;;;1.00;0.67;;;;;-147.17;100.00;-15917.19;5031429;28;50976;-60
2022/11/22 05:49:28;;;;;;;;;0.00;0.00;;;;;-147.17;100.00;-15917.19;5029577;28;51089;-60
2022/11/22 05:51:53;;;;;;;;;0.50;0.50;;;;;-147.17;100.00;-15917.19;5028532;28;54161;-60
2022/11/22 05:54:19;;;;;;;;;1.00;1.00;;;;;-147.17;100.00;-15917.19;5022286;28;51134;-60
2022/11/22 05:56:44;;;;;;;;;0.00;0.00;;;;;-147.17;100.00;-15917.19;5032445;28;51055;-60
2022/11/22 05:59:10;;;;;;;;;1.00;1.00;;;;;-147.17;100.00;-15917.19;5031603;28;51095;-60
2022/11/22 06:01:35;;;;;;;;;1.00;0.00;;;;;-147.17;100.00;-15917.19;5031100;28;51842;-59
2022/11/22 06:04:01;;;;;;;;;2.25;2.25;;;;;-147.17;100.00;-15917.19;5029068;28;51211;-59
2022/11/22 06:06:27;;;;;;;;;0.00;0.00;;;;;-147.17;100.00;-15917.19;5035628;28;51035;-58
2022/11/22 06:08:52;;;;;;;;;0.00;0.00;;;;;-147.17;100.00;-15917.19;5033491;28;50963;-58
2022/11/22 06:11:20;;;;;;;;;0.67;0.00;;;;;-147.17;100.00;-15917.19;5033954;28;51914;-59
2022/11/22 06:13:48;;;;;;;;;1.00;1.00;;;;;-147.17;100.00;-15917.19;5034724;28;51038;-59
2022/11/22 06:16:14;;;;;;;;;0.00;0.00;;;;;-147.17;100.00;-15917.19;5034617;28;51084;-59
2022/11/22 06:18:40;;;;;;;;;0.00;0.00;;;;;-147.17;100.00;-15917.19;5036205;28;51015;-60
2022/11/22 06:21:09;;;;;;;;;0.00;0.00;;;;;-147.17;100.00;-15917.19;5033271;28;52128;-59
2022/11/22 06:23:34;;;;;;;;;0.00;0.00;;;;;-147.17;100.00;-15917.19;5021781;28;51190;-59
2022/11/22 06:26:05;;;;;;;;;1.00;1.00;;;;;-147.17;100.00;-15917.19;5032270;28;51101;-60
2022/11/22 06:28:32;;;;;;;;;1.00;0.00;;;;;-147.17;100.00;-15917.19;5035486;28;51270;-59
2022/11/22 06:31:20;;;;;;;;;2.00;1.00;;;;;-147.17;100.00;-15917.19;5031972;28;52075;-59
2022/11/22 06:33:46;;;;;;;;;0.00;0.00;;;;;-147.17;100.00;-15917.19;5032884;28;51020;-63
2022/11/22 06:36:13;;;;;;;;;0.00;0.00;;;;;-147.17;100.00;-15917.19;5033428;28;51056;-59
2022/11/22 06:38:40;;;;;;;;;0.00;0.00;;;;;-147.17;100.00;-15917.19;5034844;28;50989;-58
2022/11/22 06:41:11;;;;;;;;;0.00;0.00;;;;;-147.17;100.00;-15917.19;5033630;28;52837;-59
2022/11/22 06:43:39;;;;;;;;;1.00;1.00;;;;;-147.17;100.00;-15917.19;5031932;28;51129;-60
2022/11/22 06:46:06;;;;;;;;;0.00;0.00;;;;;-147.17;100.00;-15917.19;5034117;28;51076;-61
2022/11/22 06:48:33;;;;;;;;;1.00;1.00;;;;;-147.17;100.00;-15917.19;5033606;28;51127;-61
2022/11/22 06:51:03;;;;;;;;;0.00;0.00;;;;;-147.17;100.00;-15917.19;5033395;28;51042;-60
2022/11/22 06:53:30;;;;;;;;;1.00;0.00;;;;;-147.17;100.00;-15917.19;5028314;28;51778;-61
2022/11/22 06:56:09;;;;;;;;;0.00;0.00;;;;;-147.17;100.00;-15917.19;5031539;28;51254;-59
2022/11/22 06:58:35;;;;;;;;;1.00;1.00;;;;;-147.17;100.00;-15917.19;5030726;28;51267;-59
2022/11/22 07:01:04;;;;;;;;;2.00;2.00;;;;;-147.17;100.00;-15917.19;5032747;28;51149;-60
2022/11/22 07:03:30;;;;;;;;;0.00;0.00;;;;;-147.17;100.00;-15917.19;5032479;28;51026;-60
2022/11/22 07:05:55;;;;;;;;;0.00;0.00;;;;;-147.17;100.00;-15917.19;5030127;28;51223;-60
2022/11/22 07:08:21;;;;;;;;;1.00;0.00;;;;;-147.17;100.00;-15917.19;5032316;28;51281;-60
2022/11/22 07:10:47;;;;;;;;;1.00;0.00;;;;;-147.17;100.00;-15917.19;5033887;28;51905;-59
2022/11/22 07:13:12;;;;;;;;;0.00;0.00;;;;;-147.17;100.00;-15917.19;5031212;28;51087;-62
2022/11/22 07:15:37;;;;;;;;;0.33;0.33;;;;;-147.17;100.00;-15917.19;5024529;28;51155;-59
2022/11/22 07:18:03;;;;;;;;;1.00;0.33;;;;;-147.17;100.00;-15917.19;5032242;28;51262;-60
2022/11/22 07:20:28;;;;;;;;;1.00;1.00;;;;;-147.17;100.00;-15917.19;5032544;28;52290;-59
2022/11/22 07:22:54;;;;;;;;;1.00;0.33;;;;;-147.17;100.00;-15917.19;5029972;28;51237;-60
2022/11/22 07:25:19;;;;;;;;;3.00;2.00;;;;;-147.17;100.00;-15917.19;5032558;28;51557;-59
2022/11/22 07:27:44;;;;;;;;;3.50;2.75;;;;;-147.17;100.00;-15917.19;5030670;28;51414;-60
2022/11/22 07:30:10;;;;;;;;;2.00;1.00;;;;;-147.17;100.00;-15917.19;5030414;28;51726;-60
2022/11/22 07:32:35;;;;;;;;;0.00;0.00;;;;;-147.17;100.00;-15917.19;5033197;28;51126;-59
2022/11/22 07:35:01;;;;;;;;;1.00;0.67;;;;;-147.17;100.00;-15917.19;5032715;28;51069;-61
2022/11/22 07:37:26;;;;;;;;;0.33;0.00;;;;;-147.17;100.00;-15917.19;5031520;28;51012;-58
2022/11/22 07:39:52;;;;;;;;;0.00;0.00;;;;;-147.17;100.00;-15917.19;5028355;28;51208;-59
2022/11/22 07:42:18;;;;;;;;;1.00;1.00;;;;;-147.17;100.00;-15917.19;5025972;28;51373;-59
2022/11/22 07:44:43;;;;;;;;;1.00;0.00;;;;;-147.17;100.00;-15917.19;5025497;28;52679;-59
2022/11/22 07:47:08;;;;;;;;;1.00;0.00;;;;;-147.17;100.00;-15917.19;5028225;28;51157;-60
2022/11/22 07:49:34;;;;;;;;;1.00;0.00;;;;;-147.17;100.00;-15917.19;5027746;28;56305;-59
2022/11/22 07:51:59;;;;;;;;;2.33;2.33;;;;;-147.17;100.00;-15917.19;5015127;28;51141;-60
2022/11/22 07:54:24;;;;;;;;;1.00;1.00;;;;;-147.17;100.00;-15917.19;5031901;28;51558;-57
2022/11/22 07:56:50;;;;;;;;;0.33;0.33;;;;;-147.17;100.00;-15917.19;5038192;28;51131;-58
2022/11/22 07:59:15;;;;;;;;;0.00;0.00;;;;;-147.17;100.00;-15917.19;5033539;28;51055;-60
2022/11/22 08:01:40;;;;;;;;;1.00;1.00;;;;;-147.17;100.00;-15917.19;5012052;28;51065;-59
2022/11/22 08:04:06;;;;;;;;;0.00;0.00;;;;;-147.17;100.00;-15917.19;5033243;28;51590;-59
2022/11/22 08:06:31;;;;;;;;;0.00;0.00;;;;;-147.17;100.00;-15917.19;5033469;28;51302;-58
2022/11/22 08:08:56;;;;;;;;;0.00;0.00;;;;;-147.17;100.00;-15917.19;5033537;28;51990;-58
2022/11/22 08:11:22;;;;;;;;;0.33;0.00;;;;;-147.17;100.00;-15917.19;5033522;28;51008;-58
2022/11/22 08:13:47;;;;;;;;;0.00;0.00;;;;;-147.17;100.00;-15917.19;5033832;28;50991;-60
2022/11/22 08:16:15;;;;;;;;;1.00;0.00;;;;;-147.17;100.00;-15917.19;5033713;28;51104;-59
2022/11/22 08:18:45;;;;;;;;;0.33;0.33;;;;;-147.17;100.00;-15917.19;5032318;28;53386;-59
2022/11/22 08:21:12;;;;;;;;;0.00;0.00;;;;;-147.17;100.00;-15917.19;5032835;28;51334;-58
2022/11/22 08:23:39;;;;;;;;;0.00;0.00;;;;;-147.17;100.00;-15917.19;5033351;28;51053;-58
2022/11/22 08:26:06;;;;;;;;;1.75;1.00;;;;;-147.17;100.00;-15917.19;5031988;28;51104;-58
2022/11/22 08:28:32;;;;;;;;;0.33;0.33;;;;;-147.17;100.00;-15917.19;5033121;28;51951;-58
2022/11/22 08:31:01;;;;;;;;;0.33;0.33;;;;;-147.17;100.00;-15917.19;5033163;28;50934;-58
2022/11/22 08:33:27;;;;;;;;;1.00;1.00;;;;;-147.17;100.00;-15917.19;5033094;28;51019;-60
2022/11/22 08:35:52;;;;;;;;;0.33;0.33;;;;;-147.17;100.00;-15917.19;5032918;28;51116;-59
2022/11/22 08:38:17;;;;;;;;;1.00;1.00;;;;;-147.17;100.00;-15917.19;5033122;28;51897;-59
2022/11/22 08:40:42;;;;;;;;;1.00;0.00;;;;;-147.17;100.00;-15917.19;5032682;28;50910;-58
2022/11/22 08:43:09;;;;;;;;;0.00;0.00;;;;;-147.17;100.00;-15917.19;5018226;28;51766;-59
2022/11/22 08:45:34;;;;;;;;;1.00;1.00;;;;;-147.17;100.00;-15917.19;5030536;28;51163;-57
2022/11/22 08:47:59;;;;;;;;;1.00;0.00;;;;;-147.17;100.00;-15917.19;5026997;28;52875;-55
2022/11/22 08:50:25;;;;;;;;;3.00;3.00;;;;;-147.17;100.00;-15917.19;5031747;28;51093;-55
2022/11/22 08:52:50;;;;;;;;;1.00;0.00;;;;;-147.17;100.00;-15917.19;5031549;28;51228;-55
2022/11/22 08:55:15;;;;;;;;;2.00;1.00;;;;;-147.17;100.00;-15917.19;5028036;28;51133;-56
2022/11/22 08:57:41;;;;;;;;;1.00;1.00;;;;;-147.17;100.00;-15917.19;5029624;28;52573;-55
2022/11/22 09:00:07;;;;;;;;;1.00;1.00;;;;;-147.17;100.00;-15917.19;5027899;28;51158;-56
2022/11/22 09:02:32;;;;;;;;;1.00;0.67;;;;;-147.17;100.00;-15917.19;5030130;28;51286;-56
2022/11/22 09:04:57;;;;;;;;;2.00;1.00;;;;;-147.17;100.00;-15917.19;5028991;28;51272;-56
2022/11/22 09:07:22;;;;;;;;;1.33;1.33;;;;;-147.17;100.00;-15917.19;5030746;28;51017;-56
2022/11/22 09:09:48;;;;;;;;;1.67;1.00;;;;;-147.17;100.00;-15917.19;5030123;28;51010;-54
2022/11/22 09:12:16;;;;;;;;;1.33;1.00;;;;;-147.17;100.00;-15917.19;5028891;28;51204;-54
2022/11/22 09:14:41;;;;;;;;;1.00;1.00;;;;;-147.17;100.00;-15917.19;5029613;28;51316;-55
2022/11/22 09:17:06;;;;;;;;;2.00;1.00;;;;;-147.17;100.00;-15917.19;5030232;28;64261;-55
2022/11/22 09:19:32;;;;;;;;;2.67;1.00;;;;;-147.17;100.00;-15917.19;5029062;28;51196;-54
2022/11/22 09:21:57;;;;;;;;;1.33;1.00;;;;;-147.17;100.00;-15917.19;5030999;28;51074;-55
2022/11/22 09:24:22;;;;;;;;;2.00;2.00;;;;;-147.17;100.00;-15917.19;5030698;28;50929;-56
2022/11/22 09:26:48;;;;;;;;;3.67;2.67;;;;;-147.17;100.00;-15917.19;5025223;28;51141;-55
2022/11/22 09:29:14;;;;;;;;;2.33;2.00;;;;;-147.17;100.00;-15917.19;5030729;28;51154;-58
2022/11/22 09:31:40;;;;;;;;;2.67;2.00;;;;;-147.17;100.00;-15917.19;5027214;28;51091;-57
2022/11/22 09:34:06;;;;;;;;;3.00;2.00;;;;;-147.17;100.00;-15917.19;5028437;28;51516;-55
2022/11/22 09:36:31;;;;;;;;;2.00;1.67;;;;;-147.17;100.00;-15917.19;5029055;28;51867;-56
2022/11/22 09:38:57;;;;;;;;;1.00;1.00;;;;;-147.17;100.00;-15917.19;5031117;28;51108;-56
2022/11/22 09:41:40;;;;;;;;;2.33;1.00;;;;;-147.17;100.00;-15917.19;5030363;28;51134;-57
2022/11/22 09:44:11;;;;;;;;;2.00;2.00;;;;;-147.17;100.00;-15917.19;5031076;28;51392;-57
2022/11/22 09:46:37;;;;;;;;;2.33;2.00;;;;;-147.17;100.00;-15917.19;5029280;28;52310;-57
2022/11/22 09:49:20;;;;;;;;;4.00;3.00;;;;;-147.17;100.00;-15917.19;5030605;28;51100;-58
2022/11/22 09:52:00;;;;;;;;;1.67;1.67;;;;;-147.17;100.00;-15917.19;5029929;28;51360;-58
2022/11/22 09:54:34;;;;;;;;;2.00;1.67;;;;;-147.17;100.00;-15917.19;5027697;28;50993;-57
2022/11/22 09:57:08;;;;;;;;;1.00;1.00;;;;;-147.17;100.00;-15917.19;5030154;28;52023;-57
2022/11/22 09:59:39;;;;;;;;;2.67;1.67;;;;;-147.17;100.00;-15917.19;5031136;28;51093;-57
2022/11/22 10:02:11;;;;;;;;;2.00;2.00;;;;;-147.17;100.00;-15917.19;5033871;28;51230;-57
2022/11/22 10:04:43;;;;;;;;;1.00;1.00;;;;;-147.17;100.00;-15917.19;5030178;28;51182;-57
2022/11/22 10:07:21;;;;;;;;;4.67;1.00;;;;;-147.17;100.00;-15917.19;5029218;28;51425;-57
2022/11/22 10:09:47;;;;;;;;;3.00;1.00;;;;;-147.17;100.00;-15917.19;5029926;28;51718;-58
2022/11/22 10:12:23;;;;;;;;;3.33;3.33;;;;;-147.17;100.00;-15917.19;5030207;28;51091;-58
2022/11/22 10:14:57;;;;;;;;;3.00;2.33;;;;;-147.17;100.00;-15917.19;5025996;28;52689;-57
2022/11/22 10:17:27;;;;;;;;;2.00;1.00;;;;;-147.17;100.00;-15917.19;5026344;28;52762;-57
2022/11/22 10:20:04;;;;;;;;;3.33;2.00;;;;;-147.17;100.00;-15917.19;5028200;28;51069;-57
2022/11/22 10:22:29;;;;;;;;;2.00;2.00;;;;;-147.17;100.00;-15917.19;5031278;28;51101;-58
2022/11/22 10:24:57;;;;;;;;;2.67;2.00;;;;;-147.17;100.00;-15917.19;5035036;28;50910;-58
2022/11/22 10:27:31;;;;;;;;;2.00;2.00;;;;;-147.17;100.00;-15917.19;5032380;28;51158;-58
2022/11/22 10:30:12;;;;;;;;;3.67;3.00;;;;;-147.17;100.00;-15917.19;5028853;28;51141;-57
2022/11/22 10:33:04;;;;;;;;;2.00;2.00;;;;;-147.17;100.00;-15917.19;5026374;28;50952;-59
2022/11/22 10:35:42;;;;;;;;;1.00;1.00;;;;;-147.17;100.00;-15917.19;5028855;28;51030;-58
2022/11/22 10:38:25;;;;;;;;;3.00;3.00;;;;;-147.17;100.00;-15917.19;5025714;28;52202;-58
2022/11/22 10:41:05;;;;;;;;;3.00;2.00;;;;;-147.17;100.00;-15917.19;5028912;28;50935;-58
2022/11/22 10:44:05;;;;;;;;;4.33;2.00;;;;;-147.17;100.00;-15917.19;5028357;28;50923;-59
2022/11/22 10:46:42;;;;;;;;;4.00;3.00;;;;;-147.17;100.00;-15917.19;5029587;28;51170;-58
2022/11/22 10:49:45;;;;;;;;;2.00;1.00;;;;;-147.17;100.00;-15917.19;5029535;28;51072;-57
2022/11/22 10:52:44;;;;;;;;;5.33;4.00;;;;;-147.17;100.00;-15917.19;5027254;28;51316;-57
2022/11/22 10:55:27;;;;;;;;;11.33;7.33;;;;;-147.17;100.00;-15917.19;5029941;28;51013;-58
2022/11/22 10:58:13;;;;;;;;;10.75;8.25;;;;;-147.17;100.00;-15917.19;5032226;28;51256;-57
2022/11/22 11:00:42;;;;;;;;;3.00;3.00;;;;;-147.17;100.00;-15917.19;5032100;28;52716;-57
2022/11/22 11:03:27;;;;;;;;;2.00;1.00;;;;;-147.17;100.00;-15917.19;5029544;28;51269;-58
2022/11/22 11:06:33;;;;;;;;;3.67;2.33;;;;;-147.17;100.00;-15917.19;5031480;28;51060;-59
2022/11/22 11:09:22;;;;;;;;;1.00;1.00;;;;;-147.17;100.00;-15917.19;5033831;28;51431;-59
2022/11/22 11:11:50;;;;;;;;;4.00;3.00;;;;;-147.17;100.00;-15917.19;5032984;28;51848;-59
2022/11/22 11:14:31;;;;;;;;;1.00;1.00;;;;;-147.17;100.00;-15917.19;5020759;28;50891;-59
2022/11/22 11:16:57;;;;;;;;;2.00;1.00;;;;;-147.17;100.00;-15917.19;5034452;28;51159;-59
2022/11/22 11:19:24;;;;;;;;;5.00;4.00;;;;;-147.17;100.00;-15917.19;5034060;28;51239;-63